RKTN/TAE METAR and TAF weather

Enter ICAO airport designator
Station Type Date Time Source
RKTN METAR 2022/07/01 01:00 UTC NOAA

RKTN 010100Z 02002KT 9999 FEW030 FEW200 29/22 Q1015


Station Type Date Time Source
RKTN Decoded METAR 2022/07/01 01:00 UTC NOAA

Taegu Ab, Korea, South (RKTN) 35-54N 128-39E 37M
Jun 30, 2022 - 09:00 PM EDT / 2022.07.01 0100 UTC
Wind: from the NNE (020 degrees) at 2 MPH (2 KT):0
Visibility: greater than 7 mile(s):0
Sky conditions: mostly clear
Temperature: 84 F (29 C)
Dew Point: 71 F (22 C)
Relative Humidity: 65%
Pressure (altimeter): 29.97 in. Hg (1015 hPa)
ob: RKTN 010100Z 02002KT 9999 FEW030 FEW200 29/22 Q1015
cycle: 1

Station Type Date Time Source
RKTN TAF 2022/06/30 18:48 UTC NOAA

TAF TAF RKTN 301700Z 3018/0124 21006KT 9999 SCT030 TN24/3021Z TX36/0106Z

Example: see airport list